OPKC/KHI METAR and TAF weather

Enter ICAO airport designator
Station Type Date Time Source
OPKC METAR 2021/05/16 00:25 UTC NOAA

OPKC 160025Z 32003KT 6000 NSC 27/24 Q1003 NOSIG


Station Type Date Time Source
OPKC Decoded METAR 2021/05/16 00:25 UTC NOAA

Karachi Airport, Pakistan (OPKC) 24-54N 067-08E 22M
May 15, 2021 - 08:25 PM EDT / 2021.05.16 0025 UTC
Wind: from the NW (320 degrees) at 3 MPH (3 KT):0
Visibility: 3 mile(s):0
Temperature: 80 F (27 C)
Dew Point: 75 F (24 C)
Relative Humidity: 83%
Pressure (altimeter): 29.62 in. Hg (1003 hPa)
ob: OPKC 160025Z 32003KT 6000 NSC 27/24 Q1003 NOSIG
cycle: 0

Station Type Date Time Source
OPKC TAF 2021/05/15 18:03 UTC NOAA

TAF OPKC 151530Z 1518/1624 34007KT 4000 HZ NSC
FM160400 14005G15KT 5000 HZ NSC
FM161600 27010KT 5000 HZ NSC

Example: see airport list